createdAt,value
2022-10-04T00:02:06.605Z,13.18
2022-10-04T00:04:51.494Z,13.23
2022-10-04T00:07:26.696Z,13.27
2022-10-04T00:10:07.823Z,13.32
2022-10-04T00:12:58.589Z,13.36
2022-10-04T00:15:31.245Z,13.38
2022-10-04T00:18:29.160Z,13.30
2022-10-04T00:21:00.599Z,13.30
2022-10-04T00:23:44.791Z,13.33
2022-10-04T00:26:24.748Z,13.36
2022-10-04T00:28:53.520Z,13.30
2022-10-04T00:31:27.137Z,13.24
2022-10-04T00:34:08.624Z,13.30
2022-10-04T00:36:45.810Z,13.29
2022-10-04T00:39:28.000Z,13.30
2022-10-04T00:42:03.459Z,13.24
2022-10-04T00:44:50.192Z,13.23
2022-10-04T00:47:50.041Z,13.32
2022-10-04T00:50:33.037Z,13.35
2022-10-04T00:53:11.821Z,13.36
2022-10-04T00:56:05.184Z,13.43
2022-10-04T00:58:45.384Z,13.46
2022-10-04T01:01:13.117Z,13.46
2022-10-04T01:03:44.968Z,13.42
2022-10-04T01:06:15.209Z,13.44
2022-10-04T01:09:08.120Z,13.42
2022-10-04T01:11:43.083Z,13.44
2022-10-04T01:14:44.950Z,13.46
2022-10-04T01:17:12.812Z,13.38
2022-10-04T01:19:54.120Z,13.27
2022-10-04T01:22:40.504Z,13.32
2022-10-04T01:25:08.498Z,13.40
2022-10-04T01:27:44.475Z,13.33
2022-10-04T01:30:16.295Z,13.33
2022-10-04T01:32:45.469Z,13.35
2022-10-04T01:35:15.396Z,13.33
2022-10-04T01:37:43.023Z,13.26
2022-10-04T01:40:12.252Z,13.26
2022-10-04T01:42:51.237Z,13.27
2022-10-04T01:45:44.027Z,13.26
2022-10-04T01:48:26.359Z,13.09
2022-10-04T01:51:07.134Z,13.05
2022-10-04T01:54:04.985Z,13.01
2022-10-04T01:57:06.928Z,13.05
2022-10-04T02:00:04.756Z,13.06
2022-10-04T02:02:51.425Z,13.08
2022-10-04T02:05:40.425Z,13.08
2022-10-04T02:08:13.856Z,12.95
2022-10-04T02:10:43.835Z,12.87
2022-10-04T02:13:19.023Z,12.88
2022-10-04T02:15:49.218Z,12.89
2022-10-04T02:18:21.649Z,12.91
2022-10-04T02:20:52.452Z,12.95
2022-10-04T02:23:23.127Z,12.91
2022-10-04T02:25:51.989Z,12.92
2022-10-04T02:28:20.334Z,12.82
2022-10-04T02:31:11.928Z,12.75
2022-10-04T02:33:46.987Z,12.72
2022-10-04T02:36:16.084Z,12.75
2022-10-04T02:39:05.262Z,12.75
2022-10-04T02:41:50.980Z,12.77
2022-10-04T02:44:49.595Z,12.74
2022-10-04T02:47:44.327Z,12.69
2022-10-04T02:50:27.608Z,12.68
2022-10-04T02:53:18.350Z,12.67
2022-10-04T02:55:47.783Z,12.68
2022-10-04T02:58:21.306Z,12.69
2022-10-04T03:00:57.987Z,12.64
2022-10-04T03:03:30.182Z,12.57
2022-10-04T03:06:14.906Z,12.58
2022-10-04T03:08:59.930Z,12.60
2022-10-04T03:11:35.069Z,12.60
2022-10-04T03:14:07.956Z,12.57
2022-10-04T03:16:42.437Z,12.54
2022-10-04T03:19:13.562Z,12.57
2022-10-04T03:21:46.186Z,12.57
2022-10-04T03:24:37.517Z,12.43
2022-10-04T03:27:09.375Z,12.38
2022-10-04T03:29:43.260Z,12.43
2022-10-04T03:32:15.958Z,12.44
2022-10-04T03:34:51.377Z,12.40
2022-10-04T03:37:21.305Z,12.37
2022-10-04T03:39:55.324Z,12.32
2022-10-04T03:42:28.171Z,12.27
2022-10-04T03:45:02.037Z,12.19
2022-10-04T03:47:44.630Z,12.22
2022-10-04T03:50:34.467Z,12.14
2022-10-04T03:53:16.210Z,12.19
2022-10-04T03:55:45.887Z,12.20
2022-10-04T03:58:19.212Z,12.14
2022-10-04T04:01:06.300Z,12.07
2022-10-04T04:03:50.828Z,11.95
2022-10-04T04:06:20.778Z,11.87
2022-10-04T04:08:54.134Z,11.89
2022-10-04T04:11:29.523Z,11.89
2022-10-04T04:14:03.212Z,11.96
2022-10-04T04:16:31.543Z,11.87
2022-10-04T04:19:09.879Z,11.81
2022-10-04T04:21:38.467Z,11.74
2022-10-04T04:24:39.251Z,11.74
2022-10-04T04:27:10.477Z,11.74
2022-10-04T04:29:53.118Z,11.74
2022-10-04T04:32:36.476Z,11.76
2022-10-04T04:35:08.652Z,11.96
2022-10-04T04:37:37.094Z,12.07
2022-10-04T04:40:21.133Z,11.96
2022-10-04T04:42:50.723Z,12.06
2022-10-04T04:45:26.429Z,12.03
2022-10-04T04:47:57.278Z,12.00
2022-10-04T04:50:37.588Z,11.90
2022-10-04T04:53:27.084Z,11.97
2022-10-04T04:56:10.965Z,11.95
2022-10-04T04:58:46.598Z,11.95
2022-10-04T05:01:36.958Z,11.96
2022-10-04T05:04:13.703Z,11.89
2022-10-04T05:07:04.762Z,11.87
2022-10-04T05:09:38.587Z,11.90
2022-10-04T05:12:20.289Z,11.95
2022-10-04T05:14:53.912Z,11.95
2022-10-04T05:17:35.334Z,11.99
2022-10-04T05:20:05.045Z,12.00
2022-10-04T05:22:35.142Z,11.96
2022-10-04T05:25:09.846Z,11.97
2022-10-04T05:27:44.881Z,12.00
2022-10-04T05:30:40.927Z,11.92
2022-10-04T05:33:39.605Z,11.89
2022-10-04T05:36:38.617Z,11.89
2022-10-04T05:39:22.115Z,11.97
2022-10-04T05:41:56.445Z,11.97
2022-10-04T05:44:28.891Z,11.97
2022-10-04T05:47:08.941Z,11.99
2022-10-04T05:49:46.575Z,11.92
2022-10-04T05:52:36.477Z,12.00
2022-10-04T05:55:13.289Z,11.96
2022-10-04T05:57:40.908Z,11.97
2022-10-04T06:00:17.634Z,11.93
2022-10-04T06:03:00.489Z,11.99
2022-10-04T06:05:53.899Z,12.05
2022-10-04T06:08:36.804Z,12.13
2022-10-04T06:11:13.303Z,12.19
2022-10-04T06:13:59.694Z,12.22
2022-10-04T06:16:52.177Z,12.29
2022-10-04T06:19:53.200Z,12.38
2022-10-04T06:22:26.862Z,12.51
2022-10-04T06:25:03.106Z,12.55
2022-10-04T06:27:54.162Z,12.57
2022-10-04T06:30:22.161Z,12.65
2022-10-04T06:33:02.407Z,12.72
2022-10-04T06:35:36.170Z,12.87
2022-10-04T06:38:34.378Z,12.91
2022-10-04T06:41:05.888Z,13.13
2022-10-04T06:43:48.860Z,13.39
2022-10-04T06:46:28.917Z,13.70
2022-10-04T06:49:14.027Z,14.36
2022-10-04T06:51:53.477Z,15.03
2022-10-04T06:54:51.922Z,15.31
2022-10-04T06:57:40.912Z,15.30
2022-10-04T07:00:20.063Z,15.23
2022-10-04T07:03:09.688Z,14.87
2022-10-04T07:05:43.777Z,14.73
2022-10-04T07:08:33.988Z,14.94
2022-10-04T07:11:46.337Z,15.42
2022-10-04T07:14:20.490Z,17.36
2022-10-04T07:17:05.728Z,17.77
2022-10-04T07:20:00.635Z,17.44
2022-10-04T07:22:50.353Z,18.71
2022-10-04T07:25:30.825Z,19.12
2022-10-04T07:28:35.280Z,19.87
2022-10-04T07:31:28.607Z,19.45
2022-10-04T07:34:02.351Z,20.61
2022-10-04T07:36:46.676Z,21.77
2022-10-04T07:39:22.634Z,21.64
2022-10-04T07:42:06.012Z,21.40
2022-10-04T07:44:35.945Z,20.82
2022-10-04T07:47:22.150Z,19.89
2022-10-04T07:49:53.663Z,19.11
2022-10-04T07:52:39.961Z,18.73
2022-10-04T07:55:38.343Z,18.25
2022-10-04T07:58:37.072Z,17.98
2022-10-04T08:01:44.359Z,18.06
2022-10-04T08:04:30.763Z,18.83
2022-10-04T08:07:03.371Z,19.98
2022-10-04T08:09:34.053Z,21.37
2022-10-04T08:12:26.424Z,22.41
2022-10-04T08:15:25.250Z,23.35
2022-10-04T08:18:08.219Z,23.05
2022-10-04T08:20:54.093Z,22.74
2022-10-04T08:23:42.917Z,23.52
2022-10-04T08:26:13.725Z,23.29
2022-10-04T08:29:32.835Z,21.66
2022-10-04T08:32:12.551Z,21.86
2022-10-04T08:35:10.083Z,21.64
2022-10-04T08:38:03.037Z,23.41
2022-10-04T08:40:36.663Z,23.32
2022-10-04T08:43:29.657Z,24.11
2022-10-04T08:46:16.054Z,24.55
2022-10-04T08:49:08.471Z,24.10
2022-10-04T08:51:54.241Z,24.84
2022-10-04T08:54:24.914Z,25.34
2022-10-04T08:57:16.155Z,25.03
2022-10-04T09:00:07.127Z,25.41
2022-10-04T09:02:47.932Z,25.96
2022-10-04T09:05:26.670Z,26.29
2022-10-04T09:08:18.616Z,26.39
2022-10-04T09:10:57.715Z,26.57
2022-10-04T09:13:47.037Z,26.13
2022-10-04T09:16:39.400Z,25.79
2022-10-04T09:19:16.244Z,26.54
2022-10-04T09:22:22.533Z,25.93
2022-10-04T09:25:05.201Z,25.30
2022-10-04T09:27:55.113Z,25.61
2022-10-04T09:30:48.177Z,25.11
2022-10-04T09:33:16.199Z,25.20
2022-10-04T09:36:28.649Z,24.65
2022-10-04T09:39:30.693Z,24.89
2022-10-04T09:42:33.638Z,25.04
2022-10-04T09:45:16.306Z,25.64
2022-10-04T09:48:08.540Z,25.99
2022-10-04T09:51:14.208Z,25.84
2022-10-04T09:54:34.693Z,25.69
2022-10-04T09:57:31.344Z,25.42
2022-10-04T10:00:23.528Z,24.96
2022-10-04T10:03:15.590Z,24.63
2022-10-04T10:05:49.827Z,24.69
2022-10-04T10:08:51.262Z,24.66
2022-10-04T10:11:55.667Z,25.24
2022-10-04T10:15:07.140Z,25.07
2022-10-04T10:17:37.987Z,25.74
2022-10-04T10:20:30.154Z,25.90
2022-10-04T10:23:16.862Z,26.09
2022-10-04T10:26:12.295Z,25.92
2022-10-04T10:28:58.855Z,26.16
2022-10-04T10:31:55.371Z,26.60
2022-10-04T10:34:47.347Z,26.78
2022-10-04T10:37:37.086Z,26.57
2022-10-04T10:40:23.123Z,26.61
2022-10-04T10:43:18.470Z,26.87
2022-10-04T10:46:07.215Z,26.84
2022-10-04T10:49:03.950Z,26.90
2022-10-04T10:51:56.989Z,26.85
2022-10-04T10:54:46.482Z,26.90
2022-10-04T10:57:41.503Z,26.91
2022-10-04T11:00:22.394Z,26.94
2022-10-04T11:03:12.184Z,26.65
2022-10-04T11:06:09.518Z,27.05
2022-10-04T11:08:58.755Z,27.02
2022-10-04T11:12:07.490Z,26.71
2022-10-04T11:14:56.701Z,25.42
2022-10-04T11:17:56.448Z,25.68
2022-10-04T11:20:47.317Z,26.39
2022-10-04T11:23:49.236Z,26.92
2022-10-04T11:26:49.615Z,27.25
2022-10-04T11:29:26.605Z,27.02
2022-10-04T11:32:12.273Z,27.04
2022-10-04T11:35:18.792Z,27.18
2022-10-04T11:38:07.686Z,26.85
2022-10-04T11:40:44.100Z,26.23
2022-10-04T11:43:58.014Z,26.00
2022-10-04T11:46:50.466Z,26.27
2022-10-04T11:49:49.171Z,26.16
2022-10-04T11:52:54.445Z,25.96
2022-10-04T11:56:04.181Z,26.13
2022-10-04T11:59:00.414Z,25.40
2022-10-04T12:01:43.872Z,25.13
2022-10-04T12:04:29.760Z,25.11
2022-10-04T12:07:33.327Z,25.41
2022-10-04T12:10:19.710Z,24.82
2022-10-04T12:13:05.241Z,24.45
2022-10-04T12:15:36.251Z,24.26
2022-10-04T12:18:09.638Z,24.11
2022-10-04T12:21:02.888Z,24.11
2022-10-04T12:23:48.629Z,23.90
2022-10-04T12:27:04.143Z,23.88
2022-10-04T12:30:13.200Z,23.39
2022-10-04T12:33:03.543Z,22.92
2022-10-04T12:36:08.654Z,22.70
2022-10-04T12:38:42.445Z,22.59
2022-10-04T12:41:38.677Z,22.59
2022-10-04T12:44:32.587Z,22.75
2022-10-04T12:47:20.343Z,22.68
2022-10-04T12:50:06.550Z,23.04
2022-10-04T12:52:53.065Z,23.09
2022-10-04T12:55:58.348Z,22.97
2022-10-04T12:58:47.499Z,22.68
2022-10-04T13:01:27.707Z,22.88
2022-10-04T13:03:58.119Z,22.74
2022-10-04T13:06:59.566Z,22.22
2022-10-04T13:10:05.370Z,22.23
2022-10-04T13:13:14.096Z,22.46
2022-10-04T13:19:35.202Z,22.70
2022-10-04T13:22:08.909Z,22.63
2022-10-04T13:25:14.200Z,22.40
2022-10-04T13:28:02.928Z,22.47
2022-10-04T13:30:47.096Z,22.37
2022-10-04T13:33:43.140Z,22.12
2022-10-04T13:36:42.665Z,22.10
2022-10-04T13:39:33.711Z,21.88
2022-10-04T13:42:15.570Z,22.10
2022-10-04T13:44:49.998Z,22.16
2022-10-04T13:47:56.930Z,22.09
2022-10-04T13:50:45.686Z,22.08
2022-10-04T13:53:41.394Z,22.22
2022-10-04T13:56:36.946Z,21.83
2022-10-04T13:59:19.197Z,21.86
2022-10-04T14:01:55.723Z,21.71
2022-10-04T14:04:29.195Z,21.74
2022-10-04T14:07:13.741Z,21.89
2022-10-04T14:09:58.099Z,21.98
2022-10-04T14:12:38.643Z,22.05
2022-10-04T14:15:47.917Z,22.17
2022-10-04T14:18:27.638Z,22.13
2022-10-04T14:21:27.125Z,22.01
2022-10-04T14:24:19.698Z,22.10
2022-10-04T14:26:51.126Z,22.09
2022-10-04T14:29:45.205Z,22.19
2022-10-04T14:32:28.691Z,22.02
2022-10-04T14:35:01.004Z,21.89
2022-10-04T14:37:55.274Z,21.83
2022-10-04T14:40:56.522Z,21.96
2022-10-04T14:43:59.475Z,22.03
2022-10-04T14:46:51.664Z,21.93
2022-10-04T14:49:57.913Z,21.74
2022-10-04T14:52:45.581Z,21.51
2022-10-04T14:55:51.213Z,21.53
2022-10-04T14:58:21.563Z,21.41
2022-10-04T15:01:14.835Z,21.38
2022-10-04T15:04:04.995Z,21.24
2022-10-04T15:06:50.637Z,21.23
2022-10-04T15:09:46.129Z,21.19
2022-10-04T15:13:10.523Z,21.08
2022-10-04T15:16:19.039Z,21.14
2022-10-04T15:19:00.277Z,21.04
2022-10-04T15:21:44.831Z,21.20
2022-10-04T15:24:18.333Z,21.19
2022-10-04T15:26:49.935Z,20.97
2022-10-04T15:29:28.530Z,20.95
2022-10-04T15:32:15.995Z,20.89
2022-10-04T15:35:06.887Z,20.85
2022-10-04T15:37:40.226Z,20.86
2022-10-04T15:40:29.033Z,20.79
2022-10-04T15:43:13.294Z,20.92
2022-10-04T15:46:03.948Z,20.97
2022-10-04T15:48:50.320Z,20.87
2022-10-04T15:51:36.899Z,20.79
2022-10-04T15:54:35.685Z,20.68
2022-10-04T15:57:41.446Z,20.76
2022-10-04T16:00:20.210Z,20.72
2022-10-04T16:03:37.033Z,20.56
2022-10-04T16:06:04.866Z,20.59
2022-10-04T16:09:02.812Z,20.56
2022-10-04T16:11:55.229Z,20.55
2022-10-04T16:14:52.590Z,20.48
2022-10-04T16:17:23.021Z,20.51
2022-10-04T16:20:00.870Z,20.39
2022-10-04T16:22:32.450Z,20.31
2022-10-04T16:25:26.140Z,20.32
2022-10-04T16:28:05.568Z,20.37
2022-10-04T16:30:38.546Z,20.27
2022-10-04T16:33:22.402Z,20.35
2022-10-04T16:36:14.752Z,20.24
2022-10-04T16:39:07.897Z,20.07
2022-10-04T16:41:55.106Z,19.91
2022-10-04T16:44:32.528Z,19.70
2022-10-04T16:47:18.085Z,19.52
2022-10-04T16:49:57.095Z,19.25
2022-10-04T16:52:48.566Z,19.14
2022-10-04T16:55:31.187Z,19.14
2022-10-04T16:58:41.525Z,19.01
2022-10-04T17:01:25.361Z,18.65
2022-10-04T17:04:05.318Z,18.67
2022-10-04T17:06:54.830Z,18.73
2022-10-04T17:09:46.442Z,18.81
2022-10-04T17:12:19.010Z,18.78
2022-10-04T17:14:48.200Z,18.78
2022-10-04T17:17:38.026Z,18.81
2022-10-04T17:20:38.104Z,18.68
2022-10-04T17:23:38.303Z,18.64
2022-10-04T17:26:17.557Z,18.60
2022-10-04T17:28:59.524Z,18.49
2022-10-04T17:31:44.269Z,18.43
2022-10-04T17:34:49.350Z,18.36
2022-10-04T17:37:53.438Z,18.16
2022-10-04T17:40:43.200Z,18.05
2022-10-04T17:43:45.289Z,17.92
2022-10-04T17:46:24.543Z,17.84
2022-10-04T17:49:35.049Z,17.82
2022-10-04T17:52:31.224Z,17.68
2022-10-04T17:55:18.002Z,17.61
2022-10-04T17:57:53.981Z,17.61
2022-10-04T18:00:47.161Z,17.65
2022-10-04T18:03:23.217Z,17.73
2022-10-04T18:06:01.012Z,17.64
2022-10-04T18:08:53.463Z,17.51
2022-10-04T18:11:27.011Z,17.40
2022-10-04T18:14:07.231Z,17.30
2022-10-04T18:16:49.423Z,17.27
2022-10-04T18:19:51.338Z,17.24
2022-10-04T18:22:22.242Z,17.23
2022-10-04T18:25:14.832Z,17.27
2022-10-04T18:28:09.179Z,17.24
2022-10-04T18:31:00.255Z,17.16
2022-10-04T18:33:50.206Z,17.19
2022-10-04T18:36:24.973Z,17.20
2022-10-04T18:39:27.132Z,17.16
2022-10-04T18:42:08.252Z,17.17
2022-10-04T18:44:57.316Z,17.16
2022-10-04T18:47:38.111Z,17.16
2022-10-04T18:50:23.064Z,17.12
2022-10-04T18:53:14.743Z,17.12
2022-10-04T18:55:57.328Z,17.07
2022-10-04T18:59:16.377Z,17.05
2022-10-04T19:02:00.004Z,17.00
2022-10-04T19:04:57.342Z,16.89
2022-10-04T19:07:40.210Z,16.88
2022-10-04T19:10:28.229Z,16.79
2022-10-04T19:13:00.331Z,16.80
2022-10-04T19:15:46.672Z,16.72
2022-10-04T19:18:37.213Z,16.65
2022-10-04T19:21:24.879Z,16.67
2022-10-04T19:24:11.020Z,16.69
2022-10-04T19:26:44.763Z,16.57
2022-10-04T19:29:28.536Z,16.51
2022-10-04T19:32:12.986Z,16.58
2022-10-04T19:35:18.356Z,16.57
2022-10-04T19:38:29.410Z,16.44
2022-10-04T19:41:30.878Z,16.51
2022-10-04T19:44:56.256Z,16.58
2022-10-04T19:47:38.688Z,16.69
2022-10-04T19:50:18.177Z,16.64
2022-10-04T19:52:55.373Z,16.55
2022-10-04T19:55:47.377Z,16.47
2022-10-04T19:58:37.229Z,16.50
2022-10-04T20:01:16.621Z,16.55
2022-10-04T20:03:44.611Z,16.58
2022-10-04T20:06:26.872Z,16.55
2022-10-04T20:09:02.759Z,16.47
2022-10-04T20:11:48.406Z,16.52
2022-10-04T20:14:16.970Z,16.32
2022-10-04T20:16:48.277Z,16.24
2022-10-04T20:19:20.180Z,16.27
2022-10-04T20:21:48.273Z,16.18
2022-10-04T20:24:36.295Z,16.17
2022-10-04T20:27:08.978Z,16.17
2022-10-04T20:29:39.937Z,16.18
2022-10-04T20:32:08.827Z,16.09
2022-10-04T20:34:39.226Z,16.07
2022-10-04T20:37:10.964Z,15.97
2022-10-04T20:39:41.562Z,15.94
2022-10-04T20:42:32.217Z,15.87
2022-10-04T20:45:01.989Z,15.86
2022-10-04T20:47:36.079Z,15.81
2022-10-04T20:50:12.745Z,15.78
2022-10-04T20:52:46.356Z,15.81
2022-10-04T20:55:40.163Z,15.73
2022-10-04T20:58:35.659Z,15.79
